METAR Data
IDs: Format: Raw Decoded Include TAF

Data at: 1201 UTC 23 Sep 2018

KCEY 231155Z AUTO 02003KT 10SM OVC003 17/17 A3004 RMK AO1
KCEY 231135Z AUTO 04003KT 10SM OVC003 17/17 A3003 RMK AO1
KCEY 231115Z AUTO 03004KT 10SM OVC003 17/17 A3003 RMK AO1
KCEY 231055Z AUTO 02004KT 10SM OVC003 17/17 A3003 RMK AO1
KCEY 231035Z AUTO 02005KT 10SM OVC003 17/17 A3002 RMK AO1
KCEY 231015Z AUTO 35006KT 8SM OVC003 17/17 A3001 RMK AO1
KCEY 230955Z AUTO 08004KT 10SM OVC003 17/17 A3000 RMK AO1
KCEY 230935Z AUTO 05006KT 10SM OVC004 17/17 A3002 RMK AO1
KCEY 230915Z AUTO 03005KT 10SM OVC004 17/17 A3003 RMK AO1
KCEY 230855Z AUTO 01005KT 10SM OVC004 17/17 A3003 RMK AO1 P0001
KCEY 230835Z AUTO 36006KT 10SM OVC005 17/17 A3003 RMK AO1
KCEY 230815Z AUTO 06006KT 10SM OVC005 17/17 A3002 RMK AO1
KCEY 230755Z AUTO 03005KT 10SM OVC005 17/17 A3003 RMK AO1
KCEY 230735Z AUTO 04005KT 10SM OVC005 17/17 A3003 RMK AO1
KCEY 230715Z AUTO 05005KT 10SM OVC005 17/17 A3003 RMK AO1
KCEY 230655Z AUTO 03006KT 10SM OVC005 17/17 A3004 RMK AO1
KCEY 230635Z AUTO 02005KT 10SM OVC005 17/17 A3004 RMK AO1
KCEY 230615Z AUTO 05006KT 10SM OVC005 17/17 A3004 RMK AO1
KCEY 230555Z AUTO 03008KT 8SM OVC006 17/17 A3004 RMK AO1 P0001
KCEY 230535Z AUTO 02006KT 10SM OVC005 17/17 A3005 RMK AO1 P0001
KCEY 230515Z AUTO 03007KT 10SM OVC005 17/17 A3005 RMK AO1
KCEY 230455Z AUTO 03007KT 10SM OVC006 17/17 A3006 RMK AO1
KCEY 230435Z AUTO 04007KT 10SM OVC006 17/17 A3006 RMK AO1
KCEY 230415Z AUTO 04006KT 10SM OVC004 17/17 A3006 RMK AO1
KCEY 230355Z AUTO 03008KT 9SM OVC004 17/17 A3007 RMK AO1 P0005
KCEY 230335Z AUTO 02007KT 5SM OVC004 17/17 A3007 RMK AO1 P0002
KCEY 230315Z AUTO 02006KT 9SM OVC004 17/17 A3008 RMK AO1
KCEY 230255Z AUTO 02008KT 7SM OVC004 17/17 A3008 RMK AO1 P0007
KCEY 230235Z AUTO 02007KT 4SM OVC004 17/17 A3008 RMK AO1 P0006
KCEY 230215Z AUTO 02008KT 5SM OVC005 17/17 A3009 RMK AO1 P0002
KCEY 230155Z AUTO 02006KT 3SM OVC004 17/17 A3008 RMK AO1 P0011
KCEY 230135Z AUTO 02009KT 3SM OVC004 17/17 A3008 RMK AO1 P0006
KCEY 230115Z AUTO 02008KT 3SM OVC005 17/17 A3008 RMK AO1 P0003
KCEY 230055Z AUTO 02006KT 3SM OVC004 17/17 A3008 RMK AO1 P0001
KCEY 230035Z AUTO 02007KT 5SM OVC005 17/17 A3008 RMK AO1
KCEY 230015Z AUTO 02005KT 5SM SCT004 BKN009 OVC017 17/17 A3008 RMK AO1
KCEY 222355Z AUTO 04008KT 4SM FEW010 BKN017 OVC037 17/17 A3007 RMK AO1 P0002
KCEY 222335Z AUTO 04009KT 9SM SCT010 BKN017 OVC037 17/17 A3007 RMK AO1 P0001
KCEY 222315Z AUTO 04010KT 5SM BKN008 OVC014 17/17 A3008 RMK AO1 P0001
KCEY 222255Z AUTO 03007KT 6SM BKN008 OVC015 17/17 A3009 RMK AO1 P0006
KCEY 222235Z AUTO 02009KT 8SM BKN008 BKN013 OVC017 17/17 A3008 RMK AO1 P0005
KCEY 222215Z AUTO 02013G18KT 3SM BKN006 OVC012 17/17 A3006 RMK AO1 P0004
KCEY 222155Z AUTO 02009KT 5SM OVC006 17/17 A3007 RMK AO1 P0005
KCEY 222135Z AUTO 02011G16KT 5SM OVC006 17/17 A3006 RMK AO1 P0004
KCEY 222115Z AUTO 02012KT 5SM OVC006 17/17 A3006 RMK AO1 P0002
KCEY 222055Z AUTO 02009G14KT 5SM BKN006 OVC010 17/17 A3007 RMK AO1 P0007
KCEY 222035Z AUTO 02010KT 5SM BKN005 BKN014 18/18 A3006 RMK AO1 P0004
KCEY 222015Z AUTO 02012KT 7SM OVC005 17/17 A3008 RMK AO1 P0001
KCEY 221955Z AUTO 02009KT 4SM OVC006 18/18 A3008 RMK AO1 P0003
KCEY 221935Z AUTO 02006KT 10SM BKN008 17/17 A3010 RMK AO1 P0001
KCEY 221915Z AUTO 01011KT 5SM BKN008 BKN013 18/18 A3008 RMK AO1 P0001
KCEY 221855Z AUTO 31006KT 7SM OVC008 18/18 A3012 RMK AO1 P0002
KCEY 221835Z AUTO 03010KT 7SM BKN008 18/18 A3010 RMK AO1 P0001
KCEY 221815Z AUTO 03011KT 10SM BKN008 OVC013 18/18 A3011 RMK AO1
KCEY 221755Z AUTO 04011G17KT 10SM OVC008 18/18 A3011 RMK AO1
KCEY 221735Z AUTO 04010G16KT 10SM BKN008 18/18 A3011 RMK AO1
KCEY 221715Z AUTO 03011G15KT 10SM BKN005 BKN050 18/18 A3012 RMK AO1
KCEY 221655Z AUTO 03009G14KT 10SM BKN005 OVC050 18/18 A3012 RMK AO1
KCEY 221635Z AUTO 02009KT 10SM OVC006 17/17 A3014 RMK AO1
KCEY 221615Z AUTO 03012KT 10SM BKN005 BKN044 17/17 A3015 RMK AO1
KCEY 221555Z AUTO 03011KT 10SM SCT005 BKN042 17/17 A3015 RMK AO1 P0003
KCEY 221535Z AUTO 04010G14KT 4SM FEW006 BKN033 BKN040 17/17 A3015 RMK AO1 P0003
KCEY 221515Z AUTO 02010G17KT 5SM SCT006 BKN030 OVC060 16/16 A3017 RMK AO1 P0001
KCEY 221455Z AUTO 01013KT 5SM SCT005 BKN028 16/16 A3016 RMK AO1 P0003
KCEY 221435Z AUTO 01011KT 4SM FEW006 SCT015 OVC028 16/16 A3017 RMK AO1 P0002
KCEY 221415Z AUTO 36007KT 4SM SCT006 BKN015 OVC025 16/16 A3017 RMK AO1 P0001
KCEY 221355Z AUTO 31004KT 3SM FEW006 BKN011 OVC040 16/16 A3017 RMK AO1 P0008
KCEY 221335Z AUTO 02006KT 3SM BKN011 OVC027 16/16 A3017 RMK AO1 P0006
KCEY 221315Z AUTO 36008KT 10SM SCT013 OVC027 17/17 A3015 RMK AO1 P0001
KCEY 221255Z AUTO 01009G14KT 10SM OVC027 17/17 A3014 RMK AO1
KCEY 221235Z AUTO 03009KT 6SM BKN027 BKN043 BKN050 17/17 A3014 RMK AO1
KCEY 221215Z AUTO 03011G16KT 10SM FEW032 SCT044 BKN060 17/16 A3013 RMK AO1
KCEY 221155Z AUTO 03011G16KT 10SM SCT028 BKN033 OVC060 17/16 A3013 RMK AO1
KCEY 221135Z AUTO 04010KT 10SM OVC028 17/16 A3014 RMK AO1
KCEY 221115Z AUTO 03007KT 10SM BKN030 OVC065 17/17 A3013 RMK AO1
KCEY 221055Z AUTO 02009G17KT 10SM FEW030 OVC065 17/16 A3012 RMK AO1
KCEY 221035Z AUTO 01013G18KT 10SM OVC065 17/16 A3012 RMK AO1
KCEY 221015Z AUTO 36010G17KT 10SM OVC075 17/17 A3011 RMK AO1
KCEY 220955Z AUTO 35011KT 10SM FEW032 BKN075 OVC090 17/17 A3010 RMK AO1 P0001
KCEY 220935Z AUTO 34008KT 10SM FEW019 BKN030 OVC095 18/17 A3010 RMK AO1 P0001
KCEY 220915Z AUTO 35009KT 10SM OVC030 19/17 A3010 RMK AO1 P0001
KCEY 220855Z AUTO 35005KT 10SM FEW023 BKN030 OVC085 19/17 A3011 RMK AO1
KCEY 220835Z AUTO 01009KT 10SM OVC030 20/17 A3010 RMK AO1
KCEY 220815Z AUTO 36007KT 10SM OVC032 20/16 A3011 RMK AO1
KCEY 220755Z AUTO 35004KT 10SM OVC039 22/15 A3012 RMK AO1
KCEY 220735Z AUTO 01004KT 10SM BKN039 BKN049 OVC060 22/15 A3012 RMK AO1
KCEY 220715Z AUTO 01007KT 10SM OVC037 22/15 A3012 RMK AO1
KCEY 220655Z AUTO 36006KT 10SM OVC038 22/15 A3012 RMK AO1
KCEY 220635Z AUTO 36011KT 10SM BKN036 OVC041 23/15 A3011 RMK AO1
KCEY 220615Z AUTO 36010KT 10SM OVC037 23/15 A3012 RMK AO1
KCEY 220555Z AUTO 02012G17KT 10SM BKN041 OVC049 23/15 A3011 RMK AO1
KCEY 220535Z AUTO 01011G14KT 10SM BKN047 OVC060 24/18 A3011 RMK AO1
KCEY 220515Z AUTO 36008KT 10SM BKN047 OVC110 24/18 A3011 RMK AO1
KCEY 220455Z AUTO 36008G14KT 10SM BKN047 OVC110 24/20 A3011 RMK AO1
KCEY 220435Z AUTO 36008KT 10SM OVC047 24/21 A3012 RMK AO1
KCEY 220415Z AUTO 36007KT 10SM OVC047 24/22 A3011 RMK AO1
KCEY 220355Z AUTO 35006KT 10SM OVC047 24/22 A3011 RMK AO1
KCEY 220335Z AUTO 34006KT 10SM SCT047 BKN120 24/22 A3011 RMK AO1
KCEY 220315Z AUTO 36006KT 10SM BKN110 24/22 A3011 RMK AO1
KCEY 220255Z AUTO 34005KT 10SM CLR 24/22 A3010 RMK AO1
KCEY 220235Z AUTO 01005KT 10SM CLR 25/22 A3009 RMK AO1
KCEY 220215Z AUTO 36007KT 10SM CLR 25/23 A3008 RMK AO1
KCEY 220155Z AUTO 36006KT 10SM CLR 25/22 A3008 RMK AO1
KCEY 220135Z AUTO 35006KT 10SM CLR 25/22 A3008 RMK AO1
KCEY 220115Z AUTO 34008KT 10SM CLR 25/22 A3007 RMK AO1
KCEY 220055Z AUTO 35007KT 10SM CLR 26/22 A3006 RMK AO1
KCEY 220035Z AUTO 33009KT 10SM CLR 27/22 A3005 RMK AO1
KCEY 220015Z AUTO 33009G15KT 10SM CLR 28/22 A3004 RMK AO1